OIIE/IKA METAR and TAF weather

Enter ICAO airport designator
Station Type Date Time Source
OIIE METAR 2020/01/18 15:00 UTC NOAA

OIIE 181500Z 08004KT 6000 FEW035CB FEW040 BKN100 02/00 Q1018


Station Type Date Time Source
OIIE Decoded METAR 2020/01/18 15:00 UTC NOAA

Station name not available
Jan 18, 2020 - 10:00 AM EST / 2020.01.18 1500 UTC
Wind: from the E (080 degrees) at 5 MPH (4 KT):0
Visibility: 3 mile(s):0
Sky conditions: mostly cloudy
Weather: Cumulonimbus clouds observed
Temperature: 35 F (2 C)
Windchill: 30 F (-1 C):1
Dew Point: 32 F (0 C)
Relative Humidity: 86%
Pressure (altimeter): 30.06 in. Hg (1018 hPa)
ob: OIIE 181500Z 08004KT 6000 FEW035CB FEW040 BKN100 02/00 Q1018
cycle: 15

Station Type Date Time Source
OIIE TAF 2020/01/18 12:00 UTC NOAA

TAF OIIE 181100Z 1812/1918 26006KT 6000 FEW025CB SCT030 BKN100
TEMPO 1812/1815 4000 RA BR
BECMG 1815/1817 2000 SN RA BR BKN020 SCT025CB OVC080
TEMPO 1820/1908 0700 SN FG

Example: see airport list